Terminal Aerodrome Forecast
Issued by NWS Shreveport, LA

Home | Current Version | Previous Version | Text Only | Print | Product List | Glossary On
Versions: 1 2 3 4 5 6 7 8 9 10 11 12 13 14 15 16
000
FTUS44 KSHV 231100
TAFELD
TAF
KELD 231140Z 2312/2412 00000KT P6SM SKC
     FM231500 VRB04KT P6SM SCT030 BKN250
     FM231800 VRB04KT P6SM SCT045 SCT140 BKN250
     FM240000 VRB03KT P6SM FEW050 SCT140 BKN250
     FM240900 00000KT 5SM BR FEW250=

USA.gov is the U.S. government's official web portal to all federal, state and local government web resources and services.